Hutchinson County Airport - Borger, Texas, United States - FAA: BGD - ICAO: KBGD - IATA: BGD

 
  Longest Runway: 6,300 feet   Approach Types:    Customs Landing Rights Airport: No   Port of Entry: No

Local Forecast

Today (10/1): Sunny, with a high near 86. West wind 5 to 10 mph.

Tonight (10/1): A 20 percent chance of showers and thunderstorms after 1am. Partly cloudy, with a low around 56. South southwest wind 5 to 15 mph becoming northwest after midnight. Winds could gust as high as 20 mph.

Thursday (10/2): A 20 percent chance of showers and thunderstorms before 1pm. Partly sunny, with a high near 71. Breezy, with a north northwest wind 15 to 25 mph, with gusts as high as 30 mph.

Thursday Night (10/2): Mostly clear, with a low around 47. North northwest wind 5 to 10 mph becoming light west northwest in the evening.

Friday (10/3): Sunny, with a high near 68. North wind 10 to 15 mph, with gusts as high as 25 mph.

Friday Night (10/3): Mostly clear, with a low around 47. Northeast wind 5 to 10 mph becoming south after midnight.

Saturday (10/4): Sunny, with a high near 78. South southwest wind 10 to 15 mph, with gusts as high as 20 mph.



Current Weather (METAR)

2014/10/01 09:51 KBGD 010951Z AUTO 24006KT 10SM CLR 17/04 A2974 RMK AO2 SLP028 T01720039

BORGER HUTCHINSON CO AIRPORT , TX, United States (KBGD) 35-42N 101-24W 927M Oct 01, 2014 - 05:51 AM EDT / 2014.10.01 0951 UTC Wind: from the WSW (240 degrees) at 7 MPH (6 KT):0 Visibility: 10 mile(s):0 Sky conditions: clear Temperature: 63.0 F (17.2 C) Dew Point: 39.0 F (3.9 C) Relative Humidity: 41% Pressure (altimeter): 29.74 in. Hg (1007 hPa) ob: KBGD 010951Z AUTO 24006KT 10SM CLR 17/04 A2974 RMK AO2 SLP028 T01720039 cycle: 10

Terminal Forecast (TAF)